Time;durP1;ratioP1;P1;durP2;ratioP2;P2;SDS_P1;SDS_P2;PMS_P1;PMS_P2;Temp;Humidity;BMP_temperature;BMP_pressure;BME280_temperature;BME280_humidity;BME280_pressure;Samples;Min_cycle;Max_cycle;Signal;HPM_P1;HPM_P2
2024/02/20 00:02:15;;;;;;;5.63;3.88;;;19.80;42.20;;;;;;8366496;28;20099;-54
2024/02/20 00:06:16;;;;;;;8.25;4.18;;;19.80;41.90;;;;;;8366234;28;20033;-53
2024/02/20 00:10:17;;;;;;;5.35;4.10;;;19.80;41.80;;;;;;8365939;28;20132;-55
2024/02/20 00:14:18;;;;;;;6.93;4.50;;;19.80;41.60;;;;;;8365948;28;20045;-51
2024/02/20 00:18:20;;;;;;;8.52;4.35;;;19.80;41.50;;;;;;8365748;28;20040;-52
2024/02/20 00:22:21;;;;;;;8.80;3.95;;;19.90;41.50;;;;;;8365505;28;20040;-53
2024/02/20 00:26:21;;;;;;;6.28;4.00;;;19.90;41.50;;;;;;8363999;28;20036;-51
2024/02/20 00:30:22;;;;;;;5.50;3.95;;;19.80;41.60;;;;;;8362626;28;20154;-50
2024/02/20 00:34:23;;;;;;;8.40;4.05;;;19.80;42.30;;;;;;8347546;28;20053;-53
2024/02/20 00:38:24;;;;;;;11.98;5.32;;;19.60;43.40;;;;;;8329357;28;20116;-53
2024/02/20 00:42:24;;;;;;;8.00;4.10;;;19.60;43.30;;;;;;8329432;28;20501;-53
2024/02/20 00:46:25;;;;;;;8.15;4.20;;;19.60;42.70;;;;;;8328737;28;20075;-52
2024/02/20 00:50:28;;;;;;;8.95;3.92;;;19.60;42.90;;;;;;8329633;28;20056;-52
2024/02/20 00:54:29;;;;;;;6.30;3.65;;;19.60;42.10;;;;;;8329599;28;20039;-53
2024/02/20 00:58:29;;;;;;;6.32;3.75;;;19.60;41.90;;;;;;8353223;28;20040;-53
2024/02/20 01:02:30;;;;;;;9.13;4.15;;;19.60;41.70;;;;;;8362198;28;20079;-51
2024/02/20 01:06:32;;;;;;;4.57;3.08;;;19.70;41.70;;;;;;8362480;28;20475;-52
2024/02/20 01:10:33;;;;;;;9.25;4.43;;;19.60;41.60;;;;;;8362023;28;20049;-53
2024/02/20 01:14:34;;;;;;;7.18;3.65;;;19.60;41.50;;;;;;8361888;28;20037;-53
2024/02/20 01:18:34;;;;;;;4.45;3.75;;;19.60;41.40;;;;;;8362300;28;20031;-53
2024/02/20 01:22:35;;;;;;;4.50;3.60;;;19.50;42.30;;;;;;8361873;28;20025;-53
2024/02/20 01:26:36;;;;;;;7.30;4.15;;;19.40;43.00;;;;;;8361528;28;20900;-52
2024/02/20 01:30:37;;;;;;;5.60;3.63;;;19.30;43.00;;;;;;8361474;28;20394;-53
2024/02/20 01:34:38;;;;;;;3.92;2.83;;;19.40;42.50;;;;;;8361358;28;20040;-53
2024/02/20 01:38:39;;;;;;;5.30;3.00;;;19.40;42.20;;;;;;8361167;28;20479;-53
2024/02/20 01:42:39;;;;;;;3.78;3.03;;;19.40;41.90;;;;;;8361288;28;20041;-55
2024/02/20 01:46:43;;;;;;;4.90;3.30;;;19.40;41.80;;;;;;8361038;28;20406;-54
2024/02/20 01:50:44;;;;;;;9.07;4.43;;;19.50;41.70;;;;;;8360814;28;20111;-52
2024/02/20 01:54:45;;;;;;;3.45;2.42;;;19.50;41.60;;;;;;8360715;28;20091;-55
2024/02/20 01:58:47;;;;;;;;;;;19.40;41.50;;;;;;8360915;28;20035;-53
2024/02/20 02:02:48;;;;;;;4.47;3.05;;;19.40;41.40;;;;;;8360524;28;20008;-54
2024/02/20 02:06:49;;;;;;;4.80;2.92;;;19.40;41.30;;;;;;8360447;28;20028;-55
2024/02/20 02:10:50;;;;;;;4.20;2.83;;;19.30;42.20;;;;;;8360152;28;20063;-53
2024/02/20 02:14:50;;;;;;;4.75;2.80;;;19.30;43.10;;;;;;8360364;28;20059;-55
2024/02/20 02:18:52;;;;;;;6.45;3.22;;;19.20;42.80;;;;;;8360412;28;20048;-54
2024/02/20 02:22:54;;;;;;;3.47;2.70;;;19.20;42.30;;;;;;8358848;28;20044;-53
2024/02/20 02:26:55;;;;;;;4.07;3.13;;;19.30;42.10;;;;;;8360033;28;20090;-53
2024/02/20 02:30:55;;;;;;;3.67;3.00;;;19.30;41.90;;;;;;8359738;28;20044;-53
2024/02/20 02:34:56;;;;;;;4.22;3.10;;;19.30;41.60;;;;;;8359732;28;20099;-54
2024/02/20 02:38:57;;;;;;;5.15;3.30;;;19.40;41.60;;;;;;8359852;28;20029;-54
2024/02/20 02:42:58;;;;;;;4.40;3.08;;;19.30;41.40;;;;;;8359570;28;20040;-54
2024/02/20 02:46:58;;;;;;;3.60;2.92;;;19.40;41.30;;;;;;8359484;28;20033;-54
2024/02/20 02:50:59;;;;;;;6.15;3.10;;;19.40;41.20;;;;;;8359740;28;20036;-54
2024/02/20 02:55:00;;;;;;;5.85;3.97;;;19.40;41.20;;;;;;8359588;28;20376;-51
2024/02/20 02:59:00;;;;;;;4.53;3.10;;;19.30;42.20;;;;;;8364823;28;20037;-52
2024/02/20 03:03:01;;;;;;;4.63;2.72;;;19.20;43.00;;;;;;8366004;28;20505;-50
2024/02/20 03:07:02;;;;;;;5.00;3.20;;;19.10;42.50;;;;;;8366238;28;20055;-52
2024/02/20 03:11:07;;;;;;;5.25;3.83;;;19.20;42.20;;;;;;8365438;28;20510;-52
2024/02/20 03:15:09;;;;;;;4.07;2.75;;;19.20;41.90;;;;;;8365618;28;20033;-52
2024/02/20 03:19:09;;;;;;;3.47;2.78;;;19.30;41.70;;;;;;8365599;28;20029;-51
2024/02/20 03:23:10;;;;;;;4.07;2.75;;;19.30;41.50;;;;;;8364167;28;20040;-52
2024/02/20 03:27:11;;;;;;;4.30;3.00;;;19.30;41.30;;;;;;8365064;28;20044;-52
2024/02/20 03:31:13;;;;;;;3.97;2.83;;;19.30;41.30;;;;;;8365400;28;20525;-50
2024/02/20 03:35:20;;;;;;;4.68;2.70;;;19.30;41.20;;;;;;8363805;28;20072;-52
2024/02/20 03:39:23;;;;;;;3.50;2.70;;;19.30;41.10;;;;;;8364881;28;20086;-51
2024/02/20 03:43:24;;;;;;;3.47;2.53;;;19.30;41.10;;;;;;8364717;28;20482;-53
2024/02/20 03:47:25;;;;;;;3.90;2.95;;;19.20;42.20;;;;;;8364637;28;20037;-52
2024/02/20 03:51:26;;;;;;;4.75;2.90;;;19.10;42.90;;;;;;8364493;28;20051;-52
2024/02/20 03:55:26;;;;;;;4.70;2.83;;;19.10;42.40;;;;;;8364655;28;20029;-53
2024/02/20 03:59:28;;;;;;;5.43;2.50;;;19.10;42.00;;;;;;8364286;28;20474;-52
2024/02/20 04:03:28;;;;;;;3.30;2.50;;;19.20;41.80;;;;;;8364282;28;20033;-53
2024/02/20 04:07:30;;;;;;;3.40;2.75;;;19.20;41.60;;;;;;8361887;28;20033;-53
2024/02/20 04:11:31;;;;;;;2.78;2.22;;;19.20;41.40;;;;;;8363312;28;20507;-53
2024/02/20 04:15:32;;;;;;;3.63;2.58;;;19.20;41.30;;;;;;8363739;28;20452;-54
2024/02/20 04:19:32;;;;;;;3.13;2.45;;;19.30;41.20;;;;;;8364394;28;20025;-54
2024/02/20 04:23:33;;;;;;;3.47;2.43;;;19.30;41.10;;;;;;8363424;28;20513;-53
2024/02/20 04:27:35;;;;;;;2.92;2.10;;;19.30;41.00;;;;;;8363355;28;20279;-52
2024/02/20 04:31:36;;;;;;;2.55;2.00;;;19.30;41.00;;;;;;8363353;28;20344;-53
2024/02/20 04:35:37;;;;;;;4.57;2.80;;;19.20;42.20;;;;;;8362084;28;20478;-53
2024/02/20 04:39:39;;;;;;;4.07;2.85;;;19.10;42.80;;;;;;8363601;28;20307;-52
2024/02/20 04:43:39;;;;;;;;;;;19.10;42.20;;;;;;8363277;28;20463;-52
2024/02/20 04:47:40;;;;;;;3.57;2.47;;;19.10;41.90;;;;;;8363126;28;20564;-54
2024/02/20 04:51:41;;;;;;;2.92;2.10;;;19.20;41.60;;;;;;8362661;28;20040;-53
2024/02/20 04:55:41;;;;;;;3.63;2.30;;;19.20;41.40;;;;;;8362683;28;20292;-53
2024/02/20 04:59:42;;;;;;;3.15;2.20;;;19.20;41.30;;;;;;8362590;28;20047;-53
2024/02/20 05:03:42;;;;;;;3.35;1.92;;;19.20;41.10;;;;;;8362453;28;20040;-54
2024/02/20 05:12:43;;;;;;;2.53;2.00;;;19.30;41.00;;;;;;8352147;28;20300;-53
2024/02/20 05:16:44;;;;;;;2.70;2.13;;;19.30;40.90;;;;;;8362101;28;20048;-50
2024/02/20 05:20:45;;;;;;;2.08;1.88;;;19.30;41.20;;;;;;8362656;28;20064;-49
2024/02/20 05:24:46;;;;;;;2.70;1.98;;;19.20;42.20;;;;;;8361641;28;20059;-49
2024/02/20 05:28:47;;;;;;;2.92;2.30;;;19.10;42.30;;;;;;8361710;28;20029;-51
2024/02/20 05:32:47;;;;;;;2.33;1.88;;;19.20;41.60;;;;;;8361514;28;20041;-49
2024/02/20 05:36:48;;;;;;;2.80;2.30;;;19.30;41.30;;;;;;8361264;28;20033;-49
2024/02/20 05:40:49;;;;;;;2.67;2.20;;;19.30;41.10;;;;;;8361154;28;20056;-50
2024/02/20 05:44:49;;;;;;;2.70;1.95;;;19.40;41.00;;;;;;8361217;28;20473;-48
2024/02/20 05:48:50;;;;;;;2.22;1.98;;;19.40;40.80;;;;;;8361059;28;20052;-48
2024/02/20 05:52:50;;;;;;;1.90;1.73;;;19.40;40.60;;;;;;8360794;28;20036;-49
2024/02/20 05:56:51;;;;;;;2.57;1.90;;;19.40;40.60;;;;;;8359481;28;20507;-50
2024/02/20 06:00:52;;;;;;;2.97;2.00;;;19.40;40.50;;;;;;8360828;28;20283;-50
2024/02/20 06:04:52;;;;;;;2.40;1.98;;;19.40;40.40;;;;;;8360728;28;20446;-49
2024/02/20 06:08:53;;;;;;;2.75;2.13;;;19.50;41.10;;;;;;8360394;28;20116;-49
2024/02/20 06:12:54;;;;;;;2.97;2.13;;;19.30;41.80;;;;;;8360106;28;20060;-49
2024/02/20 06:16:55;;;;;;;2.90;2.00;;;19.30;41.90;;;;;;8359289;28;20443;-48
2024/02/20 06:20:55;;;;;;;3.10;1.95;;;19.30;41.30;;;;;;8360402;28;20033;-52
2024/02/20 06:24:56;;;;;;;2.70;2.15;;;19.40;41.00;;;;;;8358785;28;20037;-49
2024/02/20 06:28:57;;;;;;;1.73;1.60;;;19.40;40.80;;;;;;8360029;28;20394;-49
2024/02/20 06:32:57;;;;;;;2.50;2.15;;;19.40;40.60;;;;;;8359479;28;20040;-50
2024/02/20 06:36:58;;;;;;;2.70;1.80;;;19.50;40.60;;;;;;8360034;28;20029;-48
2024/02/20 06:40:59;;;;;;;2.25;1.80;;;19.40;40.40;;;;;;8359804;28;20044;-49
2024/02/20 06:45:00;;;;;;;3.25;2.10;;;19.50;40.40;;;;;;8358767;28;20029;-49
2024/02/20 06:49:01;;;;;;;1.88;1.52;;;19.50;40.30;;;;;;8359856;28;20158;-48
2024/02/20 06:53:01;;;;;;;2.43;1.77;;;19.50;40.30;;;;;;8359262;28;20045;-49
2024/02/20 06:57:02;;;;;;;2.25;1.88;;;19.50;41.00;;;;;;8359702;28;20276;-49
2024/02/20 07:01:03;;;;;;;2.28;1.67;;;19.30;41.80;;;;;;8341947;28;20037;-48
2024/02/20 07:05:04;;;;;;;1.83;1.63;;;19.30;41.70;;;;;;8359598;28;20040;-51
2024/02/20 07:09:05;;;;;;;2.15;1.75;;;19.40;41.10;;;;;;8359499;28;20597;-51
2024/02/20 07:13:06;;;;;;;2.00;1.80;;;19.40;40.80;;;;;;8357873;28;20494;-49
2024/02/20 07:17:06;;;;;;;2.47;1.80;;;19.40;40.60;;;;;;8359434;28;20398;-50
2024/02/20 07:21:07;;;;;;;2.33;1.75;;;19.50;41.10;;;;;;8360304;28;20043;-49
2024/02/20 07:25:09;;;;;;;1.92;1.70;;;19.50;40.40;;;;;;8359088;28;20041;-50
2024/02/20 07:29:10;;;;;;;1.77;1.63;;;19.50;40.30;;;;;;8358761;28;20033;-50
2024/02/20 07:33:11;;;;;;;1.65;1.45;;;19.50;40.20;;;;;;8359454;28;20086;-50
2024/02/20 07:37:12;;;;;;;1.88;1.60;;;19.50;40.20;;;;;;8358872;28;20041;-55
2024/02/20 07:41:12;;;;;;;2.13;1.60;;;19.50;40.10;;;;;;8358760;28;20029;-53
2024/02/20 07:45:13;;;;;;;2.07;1.57;;;19.50;41.00;;;;;;8364319;28;20029;-53
2024/02/20 07:49:14;;;;;;;1.60;1.50;;;19.40;41.60;;;;;;8364672;28;20295;-54
2024/02/20 07:53:15;;;;;;;1.85;1.40;;;19.40;41.50;;;;;;8365108;28;20025;-55
2024/02/20 07:57:16;;;;;;;1.73;1.60;;;19.40;41.00;;;;;;8363484;28;20063;-52
2024/02/20 08:01:19;;;;;;;1.60;1.38;;;19.50;40.80;;;;;;8365150;28;20065;-53
2024/02/20 08:05:20;;;;;;;2.08;1.55;;;19.40;40.60;;;;;;8364287;28;20559;-53
2024/02/20 08:09:21;;;;;;;1.77;1.58;;;19.50;40.50;;;;;;8364705;28;20437;-54
2024/02/20 08:13:25;;;;;;;;;;;19.50;40.30;;;;;;8363843;28;20250;-52
2024/02/20 08:17:25;;;;;;;1.92;1.40;;;19.50;40.30;;;;;;8363897;28;20450;-55
2024/02/20 08:21:26;;;;;;;1.67;1.53;;;19.50;40.30;;;;;;8362686;28;20025;-54
2024/02/20 08:25:27;;;;;;;2.00;1.52;;;19.50;40.20;;;;;;8363476;28;20295;-53
2024/02/20 08:29:28;;;;;;;2.58;1.58;;;19.50;40.00;;;;;;8363431;28;20033;-55
2024/02/20 08:33:28;;;;;;;1.50;1.35;;;19.50;41.10;;;;;;8364114;28;20037;-55
2024/02/20 08:37:30;;;;;;;1.53;1.43;;;19.30;41.70;;;;;;8363058;28;20040;-54
2024/02/20 08:41:31;;;;;;;1.85;1.50;;;19.30;41.40;;;;;;8363064;28;20677;-53
2024/02/20 08:45:31;;;;;;;1.42;1.30;;;19.40;41.00;;;;;;8363309;28;20398;-54
2024/02/20 08:49:32;;;;;;;1.85;1.27;;;19.40;40.70;;;;;;8363064;28;20462;-54
2024/02/20 08:53:33;;;;;;;2.15;1.45;;;19.50;40.50;;;;;;8362307;28;20037;-55
2024/02/20 08:57:34;;;;;;;2.00;1.55;;;19.50;40.40;;;;;;8362309;28;20522;-54
2024/02/20 09:01:37;;;;;;;1.75;1.45;;;19.50;40.20;;;;;;8361134;28;20028;-54
2024/02/20 09:05:38;;;;;;;1.70;1.40;;;19.50;40.20;;;;;;8362708;28;20021;-53
2024/02/20 09:09:40;;;;;;;1.35;1.25;;;19.50;40.10;;;;;;8362125;28;20566;-52
2024/02/20 09:13:40;;;;;;;1.73;1.60;;;19.50;40.00;;;;;;8361908;28;20049;-55
2024/02/20 09:17:41;;;;;;;1.38;1.25;;;19.50;40.00;;;;;;8360797;28;20060;-54
2024/02/20 09:21:42;;;;;;;2.60;1.30;;;19.40;41.00;;;;;;8361806;28;20075;-53
2024/02/20 09:25:43;;;;;;;1.40;1.30;;;19.30;41.70;;;;;;8361643;28;20478;-54
2024/02/20 09:29:44;;;;;;;1.63;1.20;;;19.30;41.20;;;;;;8360674;28;20279;-54
2024/02/20 09:33:45;;;;;;;2.20;1.40;;;19.40;40.80;;;;;;8361669;28;20083;-53
2024/02/20 09:37:45;;;;;;;1.58;1.20;;;19.40;40.60;;;;;;8361220;28;20098;-55
2024/02/20 09:41:46;;;;;;;1.80;1.50;;;19.40;40.40;;;;;;8359979;28;20037;-53
2024/02/20 09:45:49;;;;;;;1.33;1.13;;;19.40;40.20;;;;;;8362215;28;20326;-53
2024/02/20 09:49:53;;;;;;;2.95;1.48;;;19.40;40.10;;;;;;8361097;28;20100;-53
2024/02/20 09:53:55;;;;;;;1.77;1.45;;;19.50;40.10;;;;;;8360674;28;20061;-55
2024/02/20 09:57:57;;;;;;;1.30;1.17;;;19.50;40.00;;;;;;8359396;28;20033;-55
2024/02/20 10:01:59;;;;;;;2.13;1.30;;;19.50;39.90;;;;;;8360789;28;20449;-52
2024/02/20 10:06:00;;;;;;;1.70;1.20;;;19.50;39.90;;;;;;8359629;28;20063;-54
2024/02/20 10:10:02;;;;;;;1.33;1.20;;;19.40;41.10;;;;;;8360451;28;20029;-54
2024/02/20 10:14:03;;;;;;;1.40;1.00;;;19.30;41.70;;;;;;8359926;28;20060;-54
2024/02/20 10:18:04;;;;;;;2.50;1.40;;;19.30;41.10;;;;;;8360532;28;20565;-55
2024/02/20 10:22:05;;;;;;;1.17;1.08;;;19.40;40.70;;;;;;8360007;28;20033;-52
2024/02/20 10:26:07;;;;;;;1.42;1.23;;;19.40;40.40;;;;;;8360091;28;20029;-54
2024/02/20 10:30:08;;;;;;;1.55;1.23;;;19.50;40.30;;;;;;8359984;28;20057;-52
2024/02/20 10:34:09;;;;;;;1.55;1.30;;;19.40;40.10;;;;;;8360229;28;20041;-52
2024/02/20 10:38:16;;;;;;;1.20;1.10;;;19.40;40.10;;;;;;8359743;28;20029;-54
2024/02/20 10:42:17;;;;;;;1.15;0.98;;;19.50;40.10;;;;;;8359608;28;20025;-54
2024/02/20 10:46:18;;;;;;;;;;;19.50;40.50;;;;;;8359782;28;20549;-53
2024/02/20 10:50:19;;;;;;;1.27;1.17;;;19.40;39.90;;;;;;8359763;28;20263;-52
2024/02/20 10:54:22;;;;;;;1.38;1.27;;;19.50;39.90;;;;;;8359468;28;20462;-53
2024/02/20 10:58:24;;;;;;;1.50;1.40;;;19.40;41.10;;;;;;8359067;28;20033;-54
2024/02/20 11:02:27;;;;;;;1.20;1.10;;;19.30;41.60;;;;;;8359308;28;20047;-54
2024/02/20 11:06:32;;;;;;;1.20;0.98;;;19.30;41.00;;;;;;8359325;28;20033;-50
2024/02/20 11:10:35;;;;;;;1.50;1.23;;;19.30;40.60;;;;;;8359257;28;20035;-49
2024/02/20 11:14:36;;;;;;;1.20;1.10;;;19.30;40.40;;;;;;8359149;28;20678;-50
2024/02/20 11:18:37;;;;;;;1.92;1.52;;;19.40;40.20;;;;;;8362408;28;20330;-48
2024/02/20 11:22:38;;;;;;;1.38;1.00;;;19.40;40.10;;;;;;8365950;28;20447;-49
2024/02/20 11:26:41;;;;;;;1.05;0.95;;;19.40;40.00;;;;;;8365322;28;20098;-49
2024/02/20 11:30:43;;;;;;;1.10;1.00;;;19.50;39.90;;;;;;8365367;28;20025;-48
2024/02/20 11:34:44;;;;;;;1.13;1.00;;;19.50;39.80;;;;;;8365385;28;20068;-49
2024/02/20 11:38:45;;;;;;;1.55;1.15;;;19.50;39.70;;;;;;8365099;28;20040;-50
2024/02/20 11:42:45;;;;;;;1.40;1.20;;;19.50;39.80;;;;;;8365086;28;20425;-49
2024/02/20 11:46:54;;;;;;;1.13;1.00;;;19.40;41.00;;;;;;8365013;28;20556;-51
2024/02/20 11:50:56;;;;;;;1.38;1.05;;;19.30;41.30;;;;;;8364730;28;20486;-49
2024/02/20 11:55:06;;;;;;;1.30;1.00;;;19.30;40.70;;;;;;8364881;28;20033;-50
2024/02/20 11:59:08;;;;;;;1.30;1.00;;;19.40;40.50;;;;;;8364357;28;20083;-49
2024/02/20 12:03:09;;;;;;;1.30;1.00;;;19.40;40.20;;;;;;8364352;28;20040;-49
2024/02/20 12:07:10;;;;;;;1.63;1.10;;;19.40;40.70;;;;;;8364541;28;20037;-48
2024/02/20 12:11:16;;;;;;;1.52;1.10;;;19.40;39.90;;;;;;8363766;28;20389;-49
2024/02/20 12:15:17;;;;;;;1.15;1.00;;;19.50;39.90;;;;;;8364097;28;20397;-53
2024/02/20 12:19:22;;;;;;;;;;;19.40;40.20;;;;;;8364599;28;20029;-54
2024/02/20 12:23:22;;;;;;;1.38;1.05;;;19.50;39.70;;;;;;8363719;28;20286;-53
2024/02/20 12:27:23;;;;;;;1.05;0.90;;;19.50;39.70;;;;;;8363470;28;20107;-54
2024/02/20 12:31:26;;;;;;;1.50;1.00;;;19.40;40.20;;;;;;8362692;28;20093;-53
2024/02/20 12:35:27;;;;;;;1.42;1.00;;;19.30;41.10;;;;;;8363384;28;20644;-54
2024/02/20 12:39:29;;;;;;;;;;;19.20;41.20;;;;;;8363758;28;20400;-54
2024/02/20 12:43:30;;;;;;;1.20;0.88;;;19.30;40.70;;;;;;8363117;28;20358;-54
2024/02/20 12:47:32;;;;;;;1.00;0.90;;;19.40;40.40;;;;;;8362991;28;20438;-53
2024/02/20 12:51:32;;;;;;;1.75;1.00;;;19.40;40.20;;;;;;8362940;28;20366;-54
2024/02/20 12:55:37;;;;;;;1.05;0.82;;;19.40;40.00;;;;;;8362862;28;20037;-54
2024/02/20 12:59:38;;;;;;;2.30;1.10;;;19.50;40.50;;;;;;8362542;28;20024;-52
2024/02/20 13:03:38;;;;;;;1.00;0.90;;;19.40;39.70;;;;;;8362654;28;20040;-53
2024/02/20 13:07:39;;;;;;;1.13;0.82;;;19.50;39.80;;;;;;8362608;28;20475;-53
2024/02/20 13:11:42;;;;;;;1.08;0.95;;;19.50;39.60;;;;;;8361966;28;20053;-54
2024/02/20 13:15:42;;;;;;;1.00;0.90;;;19.50;39.60;;;;;;8362211;28;20029;-54
2024/02/20 13:19:43;;;;;;;1.05;0.95;;;19.50;40.30;;;;;;8362216;28;20033;-52
2024/02/20 13:23:44;;;;;;;0.98;0.85;;;19.30;41.10;;;;;;8361915;28;20670;-53
2024/02/20 13:27:46;;;;;;;0.88;0.88;;;19.30;41.00;;;;;;8361824;28;20048;-52
2024/02/20 13:31:46;;;;;;;1.23;0.90;;;19.30;40.50;;;;;;8361727;28;20067;-52
2024/02/20 13:35:47;;;;;;;1.00;0.90;;;19.40;40.30;;;;;;8361602;28;20037;-51
2024/02/20 13:39:48;;;;;;;0.85;0.85;;;19.40;40.10;;;;;;8361218;28;20512;-50
2024/02/20 13:43:49;;;;;;;0.75;0.75;;;19.40;39.90;;;;;;8361360;28;20122;-53
2024/02/20 13:47:50;;;;;;;1.23;1.02;;;19.50;39.70;;;;;;8361061;28;20037;-52
2024/02/20 13:51:53;;;;;;;1.58;1.15;;;19.40;39.60;;;;;;8360812;28;20029;-53
2024/02/20 14:00:51;;;;;;;0.80;0.80;;;19.40;39.40;;;;;;8360665;28;20021;-53
2024/02/20 14:04:52;;;;;;;1.13;0.90;;;19.50;39.50;;;;;;8360770;28;20044;-52
2024/02/20 14:08:53;;;;;;;0.90;0.90;;;19.40;40.50;;;;;;8360537;28;20087;-52
2024/02/20 14:12:53;;;;;;;0.80;0.80;;;19.30;41.20;;;;;;8360137;28;20092;-50
2024/02/20 14:16:56;;;;;;;0.80;0.80;;;19.20;40.70;;;;;;8360022;28;20021;-50
2024/02/20 14:20:57;;;;;;;0.93;0.80;;;19.30;40.40;;;;;;8360392;28;20310;-51
2024/02/20 14:24:58;;;;;;;0.80;0.80;;;19.30;40.10;;;;;;8360119;28;20041;-51
2024/02/20 14:28:58;;;;;;;0.98;0.82;;;19.40;39.90;;;;;;8358907;28;20116;-53
2024/02/20 14:33:03;;;;;;;0.93;0.80;;;19.40;39.80;;;;;;8359844;28;20040;-52
2024/02/20 14:37:06;;;;;;;1.13;0.90;;;19.40;39.70;;;;;;8359973;28;20151;-54
2024/02/20 14:41:07;;;;;;;0.98;0.88;;;19.40;39.60;;;;;;8360318;28;20116;-54
2024/02/20 14:45:08;;;;;;;1.00;0.75;;;19.50;39.60;;;;;;8359841;28;20033;-54
2024/02/20 14:49:10;;;;;;;0.65;0.65;;;19.50;39.50;;;;;;8359544;28;20036;-54
2024/02/20 14:53:11;;;;;;;;;;;19.50;39.40;;;;;;8361463;28;20040;-53
2024/02/20 14:57:12;;;;;;;0.60;0.60;;;19.40;40.60;;;;;;8366374;28;19958;-53
2024/02/20 15:01:21;;;;;;;0.77;0.70;;;19.30;41.10;;;;;;8366277;28;20108;-54
2024/02/20 15:05:23;;;;;;;0.77;0.75;;;19.30;40.60;;;;;;8366131;28;20279;-54
2024/02/20 15:09:23;;;;;;;1.27;0.80;;;19.40;40.20;;;;;;8364793;28;20095;-53
2024/02/20 15:13:24;;;;;;;0.70;0.70;;;19.40;40.00;;;;;;8365604;28;20085;-54
2024/02/20 15:17:25;;;;;;;0.70;0.70;;;19.50;39.80;;;;;;8365996;28;20552;-53
2024/02/20 15:21:25;;;;;;;0.80;0.80;;;19.50;39.70;;;;;;8365489;28;20547;-53
2024/02/20 15:25:26;;;;;;;1.05;0.90;;;19.40;39.60;;;;;;8365844;28;20450;-54
2024/02/20 15:29:27;;;;;;;0.60;0.60;;;19.50;39.50;;;;;;8365340;28;20539;-53
2024/02/20 15:33:27;;;;;;;1.20;1.02;;;19.50;39.40;;;;;;8365305;28;20052;-54
2024/02/20 15:37:28;;;;;;;1.05;0.55;;;19.50;39.40;;;;;;8365253;28;20028;-55
2024/02/20 15:41:29;;;;;;;0.82;0.70;;;19.50;39.80;;;;;;8363600;28;20577;-52
2024/02/20 15:45:29;;;;;;;0.80;0.75;;;19.40;40.60;;;;;;8363706;28;20040;-53
2024/02/20 15:49:30;;;;;;;1.23;0.82;;;19.30;41.10;;;;;;8363705;28;20040;-53
2024/02/20 15:53:31;;;;;;;1.17;0.75;;;19.30;40.50;;;;;;8364622;28;20029;-54
2024/02/20 15:57:31;;;;;;;0.70;0.60;;;19.30;40.10;;;;;;8364311;28;20509;-54
2024/02/20 16:01:32;;;;;;;0.80;0.70;;;19.40;39.90;;;;;;8364654;28;20029;-54
2024/02/20 16:05:35;;;;;;;0.68;0.60;;;19.40;39.70;;;;;;8364232;28;20538;-54
2024/02/20 16:09:36;;;;;;;0.68;0.68;;;19.40;39.70;;;;;;8364218;28;20029;-53
2024/02/20 16:13:37;;;;;;;0.88;0.80;;;19.50;39.60;;;;;;8363894;28;20135;-53
2024/02/20 16:17:40;;;;;;;;;;;19.40;39.40;;;;;;8364193;28;20029;-52
2024/02/20 16:21:40;;;;;;;0.60;0.60;;;19.40;39.40;;;;;;8363834;28;19908;-54
2024/02/20 16:25:42;;;;;;;0.75;0.75;;;19.50;39.40;;;;;;8363596;28;20025;-54
2024/02/20 16:29:43;;;;;;;1.05;0.85;;;19.50;39.40;;;;;;8330488;28;20046;-52
2024/02/20 16:33:45;;;;;;;0.60;0.55;;;19.40;40.60;;;;;;8330387;28;20161;-54
2024/02/20 16:37:46;;;;;;;0.80;0.80;;;19.30;41.00;;;;;;8330257;28;20026;-55
2024/02/20 16:41:46;;;;;;;0.80;0.80;;;19.30;40.40;;;;;;8330026;28;20538;-54
2024/02/20 16:45:47;;;;;;;0.75;0.75;;;19.30;40.10;;;;;;8330108;28;20330;-54
2024/02/20 16:49:48;;;;;;;0.70;0.50;;;19.40;39.90;;;;;;8330197;28;20034;-54
2024/02/20 16:53:48;;;;;;;0.65;0.63;;;19.40;39.70;;;;;;8312001;28;20034;-54
2024/02/20 16:57:49;;;;;;;0.60;0.60;;;19.40;39.60;;;;;;8347562;28;20091;-52
2024/02/20 17:01:51;;;;;;;0.60;0.60;;;19.50;39.50;;;;;;8362644;28;20036;-52
2024/02/20 17:05:51;;;;;;;;;;;19.40;39.30;;;;;;8362809;28;20106;-54
2024/02/20 17:09:53;;;;;;;0.60;0.60;;;19.50;39.30;;;;;;8362457;28;19915;-54
2024/02/20 17:13:54;;;;;;;0.60;0.60;;;19.50;39.30;;;;;;8361768;28;20080;-54
2024/02/20 17:17:55;;;;;;;1.05;0.80;;;19.50;39.50;;;;;;8361545;28;20029;-54
2024/02/20 17:21:55;;;;;;;0.55;0.55;;;19.40;40.70;;;;;;8361721;28;20025;-54
2024/02/20 17:25:56;;;;;;;0.95;0.77;;;19.30;40.90;;;;;;8361648;28;20724;-54
2024/02/20 17:29:58;;;;;;;1.05;0.68;;;19.30;40.30;;;;;;8361188;28;20044;-54
2024/02/20 17:34:00;;;;;;;0.65;0.60;;;19.30;40.00;;;;;;8344912;28;20482;-54
2024/02/20 17:38:01;;;;;;;0.93;0.70;;;19.40;39.90;;;;;;8351574;28;20057;-53
2024/02/20 17:42:02;;;;;;;1.85;1.00;;;19.40;39.70;;;;;;8370461;28;20040;-54
2024/02/20 17:46:02;;;;;;;2.22;0.73;;;19.40;39.50;;;;;;8378684;28;20040;-54
2024/02/20 17:50:03;;;;;;;1.45;0.70;;;19.50;39.50;;;;;;8377276;28;20047;-54
2024/02/20 17:54:04;;;;;;;1.55;0.60;;;19.50;39.40;;;;;;8376704;28;20035;-55
2024/02/20 17:58:05;;;;;;;0.85;0.70;;;19.60;39.30;;;;;;8366382;28;20398;-55
2024/02/20 18:02:06;;;;;;;6.13;1.20;;;19.60;39.30;;;;;;8356091;28;20036;-51
2024/02/20 18:06:07;;;;;;;1.75;0.93;;;19.50;40.30;;;;;;8378077;28;20067;-50
2024/02/20 18:10:08;;;;;;;13.45;1.40;;;19.50;42.10;;;;;;8374496;28;20118;-50
2024/02/20 18:14:09;;;;;;;;;;;19.60;42.60;;;;;;8383028;28;20514;-51
2024/02/20 18:18:10;;;;;;;5.23;0.83;;;19.70;42.50;;;;;;8355332;28;20310;-52
2024/02/20 18:22:11;;;;;;;;;;;19.80;42.40;;;;;;8375136;28;20098;-53
2024/02/20 18:26:12;;;;;;;7.28;1.20;;;19.80;41.90;;;;;;8351574;28;19919;-49
2024/02/20 18:30:13;;;;;;;6.18;1.02;;;19.90;42.00;;;;;;8342545;28;20032;-47
2024/02/20 18:34:14;;;;;;;17.55;2.78;;;20.00;41.80;;;;;;8350422;28;20029;-48
2024/02/20 18:38:15;;;;;;;8.63;2.10;;;20.00;41.60;;;;;;8354697;28;20037;-49
2024/02/20 18:42:16;;;;;;;10.10;1.10;;;20.00;41.60;;;;;;8341144;28;20049;-47
2024/02/20 18:46:16;;;;;;;4.47;1.10;;;20.10;41.70;;;;;;8336138;28;20039;-48
2024/02/20 18:50:17;;;;;;;6.03;1.00;;;20.10;41.60;;;;;;8317334;28;20479;-54
2024/02/20 18:54:18;;;;;;;15.02;1.85;;;20.20;42.90;;;;;;8313743;28;20384;-46
2024/02/20 18:58:19;;;;;;;6.68;1.48;;;20.10;44.10;;;;;;8342329;28;20041;-46
2024/02/20 19:02:20;;;;;;;3.65;1.05;;;20.10;43.80;;;;;;8320261;28;20069;-54
2024/02/20 19:06:21;;;;;;;;;;;20.20;43.10;;;;;;8328539;28;20037;-47
2024/02/20 19:10:21;;;;;;;6.17;1.77;;;20.20;42.80;;;;;;8329307;28;19917;-49
2024/02/20 19:14:23;;;;;;;5.68;1.13;;;20.30;43.00;;;;;;8352068;28;20045;-47
2024/02/20 19:18:24;;;;;;;5.38;1.13;;;20.30;43.20;;;;;;8345637;28;20041;-49
2024/02/20 19:22:27;;;;;;;7.43;1.30;;;20.20;42.50;;;;;;8348293;28;20025;-48
2024/02/20 19:26:28;;;;;;;9.43;1.30;;;20.30;44.00;;;;;;8338947;28;20033;-48
2024/02/20 19:30:29;;;;;;;6.40;1.30;;;20.40;44.10;;;;;;8309514;28;20071;-47
2024/02/20 19:34:29;;;;;;;5.70;1.45;;;20.60;43.90;;;;;;8322408;28;20049;-46
2024/02/20 19:38:33;;;;;;;4.05;1.15;;;20.60;43.60;;;;;;8306157;28;20033;-50
2024/02/20 19:42:34;;;;;;;5.28;1.05;;;20.60;44.50;;;;;;8310393;28;20146;-50
2024/02/20 19:46:38;;;;;;;4.38;1.33;;;20.50;45.80;;;;;;8319955;28;20041;-48
2024/02/20 19:50:38;;;;;;;9.15;1.27;;;20.40;45.10;;;;;;8326770;28;20494;-49
2024/02/20 19:54:39;;;;;;;12.68;1.23;;;20.50;44.50;;;;;;8340283;28;20454;-50
2024/02/20 19:58:40;;;;;;;13.00;2.45;;;20.60;44.00;;;;;;8341460;28;20044;-54
2024/02/20 20:02:41;;;;;;;17.48;6.78;;;20.50;42.80;;;;;;8337823;28;20037;-52
2024/02/20 20:06:43;;;;;;;16.77;7.55;;;20.30;42.20;;;;;;8342415;28;20044;-53
2024/02/20 20:10:43;;;;;;;13.85;5.85;;;20.30;42.00;;;;;;8340866;28;20628;-54
2024/02/20 20:14:44;;;;;;;19.95;5.97;;;20.40;42.00;;;;;;8299944;28;20988;-50
2024/02/20 20:18:48;;;;;;;20.25;6.40;;;20.30;41.20;;;;;;8290948;28;20099;-49
2024/02/20 20:22:49;;;;;;;15.80;5.38;;;20.20;41.00;;;;;;8298163;28;20757;-50
2024/02/20 20:26:49;;;;;;;15.05;4.93;;;20.30;41.00;;;;;;8336713;28;20509;-54
2024/02/20 20:30:50;;;;;;;11.65;5.03;;;20.30;42.40;;;;;;8347137;28;20029;-54
2024/02/20 20:34:51;;;;;;;11.15;5.68;;;20.10;43.20;;;;;;8353626;28;20042;-53
2024/02/20 20:38:52;;;;;;;9.40;5.72;;;20.00;42.00;;;;;;8356917;28;20025;-54
2024/02/20 20:42:53;;;;;;;9.90;4.57;;;19.90;41.00;;;;;;8349166;28;20034;-54
2024/02/20 20:46:53;;;;;;;9.93;5.15;;;19.90;40.60;;;;;;8348084;28;20029;-55
2024/02/20 20:50:54;;;;;;;11.13;5.15;;;19.90;40.60;;;;;;8340527;28;20041;-55
2024/02/20 20:54:55;;;;;;;9.25;4.35;;;20.10;40.30;;;;;;8333619;28;20033;-55
2024/02/20 20:58:55;;;;;;;9.65;4.57;;;20.20;40.10;;;;;;8362242;28;20037;-55
2024/02/20 21:02:56;;;;;;;12.80;4.43;;;20.30;40.00;;;;;;8360909;28;20021;-55
2024/02/20 21:06:57;;;;;;;11.68;4.22;;;20.40;40.00;;;;;;8360933;28;20382;-58
2024/02/20 21:10:57;;;;;;;8.25;4.22;;;20.40;39.90;;;;;;8360452;28;20045;-56